Time;durP1;ratioP1;P1;durP2;ratioP2;P2;SDS_P1;SDS_P2;PMS_P1;PMS_P2;Temp;Humidity;BMP_temperature;BMP_pressure;BME280_temperature;BME280_humidity;BME280_pressure;Samples;Min_cycle;Max_cycle;Signal;HPM_P1;HPM_P2
2023/07/24 00:01:23;;;;;;;3.90;2.83;;;16.90;99.90;;;;;;6229704;22;20458;-93
2023/07/24 00:03:49;;;;;;;6.50;3.20;;;17.70;99.90;;;;;;6254714;22;20569;-95
2023/07/24 00:06:18;;;;;;;5.72;2.75;;;16.90;99.90;;;;;;6279907;22;20011;-94
2023/07/24 00:08:48;;;;;;;4.70;3.20;;;16.90;99.90;;;;;;6254933;22;20105;-94
2023/07/24 00:11:21;;;;;;;4.72;2.75;;;16.90;99.90;;;;;;6255859;22;20011;-94
2023/07/24 00:13:47;;;;;;;3.58;2.63;;;16.90;99.90;;;;;;6254384;22;20026;-94
2023/07/24 00:16:15;;;;;;;4.55;2.90;;;16.90;99.90;;;;;;6280209;22;20090;-95
2023/07/24 00:18:41;;;;;;;3.78;2.70;;;16.80;99.90;;;;;;6254260;22;20017;-94
2023/07/24 00:21:10;;;;;;;5.70;3.10;;;16.90;99.90;;;;;;6254172;22;20042;-94
2023/07/24 00:23:38;;;;;;;3.75;2.88;;;16.80;99.90;;;;;;6278454;22;20015;-94
2023/07/24 00:26:07;;;;;;;4.38;2.80;;;16.80;99.90;;;;;;6280031;22;20050;-93
2023/07/24 00:28:33;;;;;;;5.18;2.95;;;16.80;99.90;;;;;;6249228;22;20019;-94
2023/07/24 00:31:08;;;;;;;3.70;2.85;;;16.20;99.90;;;;;;6248984;22;20026;-93
2023/07/24 00:33:45;;;;;;;3.72;2.78;;;16.80;99.90;;;;;;6249050;22;20015;-95
2023/07/24 00:36:13;;;;;;;4.00;3.25;;;16.80;99.90;;;;;;6223413;22;20018;-94
2023/07/24 00:38:42;;;;;;;4.60;2.90;;;16.70;99.90;;;;;;6248247;22;20007;-95
2023/07/24 00:41:08;;;;;;;5.05;3.05;;;16.70;99.90;;;;;;6222895;22;20030;-93
2023/07/24 00:43:34;;;;;;;3.85;2.78;;;16.70;99.90;;;;;;6223936;22;20047;-93
2023/07/24 00:46:00;;;;;;;5.15;3.00;;;16.70;99.90;;;;;;6248314;22;20103;-94
2023/07/24 00:48:27;;;;;;;4.20;3.30;;;16.70;99.90;;;;;;6248745;22;20015;-92
2023/07/24 00:50:54;;;;;;;3.75;3.03;;;16.70;99.90;;;;;;6248786;22;20019;-93
2023/07/24 00:53:20;;;;;;;5.45;3.55;;;16.70;99.90;;;;;;6223337;22;20018;-93
2023/07/24 00:55:49;;;;;;;4.68;2.97;;;16.60;99.90;;;;;;6223501;22;20809;-94
2023/07/24 00:58:19;;;;;;;4.82;3.28;;;16.60;99.90;;;;;;6248482;22;20011;-94
2023/07/24 01:00:50;;;;;;;6.88;3.53;;;16.60;99.90;;;;;;6248710;22;20110;-94
2023/07/24 01:03:16;;;;;;;4.50;2.92;;;16.60;99.90;;;;;;6174365;22;20012;-93
2023/07/24 01:05:42;;;;;;;4.60;3.08;;;16.60;99.90;;;;;;6248828;22;20103;-93
2023/07/24 01:08:08;;;;;;;4.72;3.28;;;16.60;99.90;;;;;;6248487;22;20051;-93
2023/07/24 01:10:34;;;;;;;4.93;3.30;;;16.60;99.90;;;;;;6248364;22;20446;-94
2023/07/24 01:13:17;;;;;;;4.70;3.40;;;16.60;99.90;;;;;;6223606;22;20488;-94
2023/07/24 01:15:50;;;;;;;5.82;3.35;;;16.50;99.90;;;;;;6223125;22;20054;-96
2023/07/24 01:18:17;;;;;;;5.15;3.30;;;16.50;99.90;;;;;;6222514;22;20041;-94
2023/07/24 01:20:48;;;;;;;5.13;3.28;;;16.50;99.90;;;;;;6223189;22;20030;-94
2023/07/24 01:23:55;;;;;;;5.28;3.40;;;16.50;99.90;;;;;;6223186;22;20047;-93
2023/07/24 01:26:23;;;;;;;5.72;3.28;;;16.50;99.90;;;;;;6224145;22;20019;-94
2023/07/24 01:28:52;;;;;;;7.00;3.30;;;16.50;99.90;;;;;;6222183;22;20019;-94
2023/07/24 01:31:21;;;;;;;5.82;3.72;;;16.50;99.90;;;;;;6248898;22;20091;-94
2023/07/24 01:33:47;;;;;;;5.28;3.25;;;16.50;99.90;;;;;;6248309;22;20418;-93
2023/07/24 01:36:21;;;;;;;6.13;3.13;;;16.50;99.90;;;;;;6248036;22;20015;-93
2023/07/24 01:38:49;;;;;;;5.18;3.15;;;16.50;99.90;;;;;;6172222;22;20090;-93
2023/07/24 01:41:15;;;;;;;5.15;3.80;;;16.40;99.90;;;;;;6198849;22;20012;-93
2023/07/24 01:43:41;;;;;;;5.75;3.72;;;16.50;99.90;;;;;;6222904;22;20395;-93
2023/07/24 01:46:08;;;;;;;5.10;4.00;;;16.40;99.90;;;;;;6249253;22;20019;-93
2023/07/24 01:48:34;;;;;;;5.25;3.90;;;16.40;99.90;;;;;;6248629;22;20450;-92
2023/07/24 01:51:00;;;;;;;5.97;4.07;;;16.40;99.90;;;;;;6173626;22;20026;-94
2023/07/24 01:53:29;;;;;;;4.85;4.15;;;16.40;99.90;;;;;;6222969;22;20011;-94
2023/07/24 01:55:54;;;;;;;6.63;4.80;;;16.40;99.90;;;;;;6249114;22;20012;-93
2023/07/24 01:58:20;;;;;;;6.65;4.47;;;16.30;99.90;;;;;;6247898;22;20524;-94
2023/07/24 02:00:47;;;;;;;6.55;5.32;;;16.30;99.90;;;;;;6235885;22;20335;-93
2023/07/24 02:03:12;;;;;;;6.20;4.47;;;16.00;99.90;;;;;;6222849;22;20016;-93
2023/07/24 02:05:38;;;;;;;8.57;5.15;;;16.30;99.90;;;;;;6248259;22;20085;-93
2023/07/24 02:08:04;;;;;;;5.60;5.00;;;16.30;99.90;;;;;;6247552;22;20071;-93
2023/07/24 02:10:39;;;;;;;5.43;4.63;;;16.30;99.90;;;;;;6223292;22;20019;-93
2023/07/24 02:13:07;;;;;;;6.72;5.18;;;16.30;99.90;;;;;;6200196;22;20443;-94
2023/07/24 02:15:43;;;;;;;6.55;5.50;;;16.20;99.90;;;;;;6248699;22;20069;-95
2023/07/24 02:18:10;;;;;;;6.18;5.00;;;16.30;99.90;;;;;;6249793;22;20012;-94
2023/07/24 02:20:36;;;;;;;5.73;5.23;;;16.40;99.90;;;;;;6247576;22;20095;-92
2023/07/24 02:23:02;;;;;;;5.43;4.72;;;16.40;99.90;;;;;;6248071;22;20628;-93
2023/07/24 02:25:32;;;;;;;5.57;4.97;;;16.40;99.90;;;;;;6198289;22;20094;-93
2023/07/24 02:27:58;;;;;;;5.00;4.47;;;16.50;99.90;;;;;;6268171;22;20026;-93
2023/07/24 02:30:31;;;;;;;6.78;5.53;;;16.50;99.90;;;;;;6278473;22;20019;-94
2023/07/24 02:33:00;;;;;;;7.05;5.50;;;16.50;99.90;;;;;;6254327;22;20015;-93
2023/07/24 02:35:29;;;;;;;5.82;5.18;;;16.70;99.90;;;;;;6231369;22;20465;-93
2023/07/24 02:37:55;;;;;;;6.15;5.55;;;16.50;99.90;;;;;;6230845;22;20387;-94
2023/07/24 02:40:21;;;;;;;6.63;5.60;;;16.50;99.90;;;;;;6280920;22;20018;-94
2023/07/24 02:42:46;;;;;;;6.25;5.65;;;16.50;99.90;;;;;;6280369;22;20011;-93
2023/07/24 02:45:12;;;;;;;6.40;5.70;;;16.50;99.90;;;;;;6280964;22;20033;-95
2023/07/24 02:47:39;;;;;;;6.25;5.32;;;16.50;99.90;;;;;;6280862;22;20023;-94
2023/07/24 02:50:08;;;;;;;7.55;5.88;;;16.50;99.90;;;;;;6279795;22;20088;-93
2023/07/24 02:52:37;;;;;;;6.05;5.45;;;16.60;99.90;;;;;;6279504;22;20015;-93
2023/07/24 02:55:06;;;;;;;5.75;5.25;;;16.50;99.90;;;;;;6279819;22;20012;-94
2023/07/24 02:57:32;;;;;;;6.75;5.57;;;16.50;99.90;;;;;;6280379;22;20018;-94
2023/07/24 02:59:58;;;;;;;5.78;5.18;;;16.40;99.90;;;;;;6280441;22;20030;-93
2023/07/24 03:02:26;;;;;;;7.97;5.60;;;16.50;99.90;;;;;;6279586;22;20015;-93
2023/07/24 03:04:52;;;;;;;6.40;5.40;;;16.40;99.90;;;;;;6254594;22;20022;-91
2023/07/24 03:07:18;;;;;;;7.03;5.75;;;16.40;99.90;;;;;;6280654;22;20015;-94
2023/07/24 03:09:43;;;;;;;7.15;5.35;;;16.50;99.90;;;;;;6279789;22;20011;-93
2023/07/24 03:12:11;;;;;;;6.07;5.40;;;16.50;99.90;;;;;;6280017;22;20607;-93
2023/07/24 03:14:36;;;;;;;;;;;16.50;99.90;;;;;;6279084;22;20096;-93
2023/07/24 03:17:05;;;;;;;5.25;4.75;;;16.50;99.90;;;;;;6279408;22;20322;-94
2023/07/24 03:19:31;;;;;;;8.52;5.93;;;16.50;99.90;;;;;;6203617;22;20008;-94
2023/07/24 03:21:57;;;;;;;5.43;4.72;;;16.50;99.90;;;;;;6228812;22;20827;-94
2023/07/24 03:24:27;;;;;;;5.57;4.55;;;16.60;99.90;;;;;;6279863;22;20443;-92
2023/07/24 03:26:53;;;;;;;5.72;4.95;;;16.50;99.90;;;;;;6254413;22;20093;-93
2023/07/24 03:29:19;;;;;;;6.40;4.75;;;16.50;99.90;;;;;;6280576;22;20462;-93
2023/07/24 03:31:45;;;;;;;6.07;4.47;;;16.60;99.90;;;;;;6280521;22;20015;-93
2023/07/24 03:34:11;;;;;;;5.63;4.55;;;16.60;99.90;;;;;;6253447;22;20446;-94
2023/07/24 03:36:41;;;;;;;4.80;4.25;;;16.70;99.90;;;;;;6279537;22;20098;-94
2023/07/24 03:39:07;;;;;;;5.80;4.45;;;16.40;99.90;;;;;;6205822;22;20752;-94
2023/07/24 03:41:38;;;;;;;5.80;4.40;;;16.70;99.90;;;;;;6254446;22;20439;-92
2023/07/24 03:44:04;;;;;;;6.47;5.10;;;16.70;99.90;;;;;;6279248;22;20022;-94
2023/07/24 03:46:33;;;;;;;5.18;4.32;;;16.70;99.90;;;;;;6280369;22;20007;-95
2023/07/24 03:48:59;;;;;;;5.70;4.57;;;16.70;99.90;;;;;;6229386;22;20061;-96
2023/07/24 03:51:25;;;;;;;7.20;5.10;;;16.70;99.90;;;;;;6280299;22;20011;-95
2023/07/24 03:53:50;;;;;;;5.07;4.57;;;16.70;99.90;;;;;;6254699;22;20012;-93
2023/07/24 03:56:16;;;;;;;7.38;4.30;;;16.70;99.90;;;;;;6254056;22;20712;-95
2023/07/24 03:58:45;;;;;;;5.28;4.55;;;16.70;99.90;;;;;;6255043;22;20022;-95
2023/07/24 04:01:11;;;;;;;5.38;4.28;;;16.70;99.90;;;;;;6255086;22;20015;-95
2023/07/24 04:03:37;;;;;;;4.95;3.55;;;16.50;99.90;;;;;;6255172;22;20072;-94
2023/07/24 04:06:06;;;;;;;5.38;4.10;;;16.80;99.90;;;;;;6279212;22;20094;-95
2023/07/24 04:08:32;;;;;;;5.80;4.05;;;16.70;99.90;;;;;;6254488;22;20047;-96
2023/07/24 04:10:57;;;;;;;5.20;3.85;;;16.80;99.90;;;;;;6280085;22;20007;-93
2023/07/24 04:13:23;;;;;;;4.85;3.80;;;16.70;99.90;;;;;;6279429;22;20108;-93
2023/07/24 04:15:50;;;;;;;7.13;4.03;;;17.10;99.90;;;;;;6254201;22;20011;-92
2023/07/24 04:18:18;;;;;;;6.10;4.15;;;16.80;99.90;;;;;;6279342;22;20457;-93
2023/07/24 04:20:47;;;;;;;4.97;3.78;;;16.80;99.90;;;;;;6254201;22;20011;-93
2023/07/24 04:23:20;;;;;;;5.38;4.15;;;16.80;99.90;;;;;;6255332;22;20011;-92
2023/07/24 04:25:46;;;;;;;6.13;4.20;;;16.80;99.90;;;;;;6279301;22;20047;-93
2023/07/24 04:28:12;;;;;;;6.43;3.65;;;16.80;99.90;;;;;;6274274;22;20027;-93
2023/07/24 04:30:38;;;;;;;4.60;3.15;;;16.80;99.90;;;;;;6248450;22;20019;-93
2023/07/24 04:33:04;;;;;;;4.05;3.55;;;16.90;99.90;;;;;;6249285;22;20015;-93
2023/07/24 04:35:30;;;;;;;5.50;3.85;;;16.90;99.90;;;;;;6274898;22;20062;-93
2023/07/24 04:37:57;;;;;;;6.53;4.28;;;16.90;99.90;;;;;;6273663;22;20008;-94
2023/07/24 04:40:24;;;;;;;4.78;3.78;;;16.90;99.90;;;;;;6223468;22;20012;-93
2023/07/24 04:42:49;;;;;;;6.22;4.25;;;16.80;99.90;;;;;;6249997;22;20016;-93
2023/07/24 04:45:15;;;;;;;5.18;4.03;;;16.90;99.90;;;;;;6200256;22;20062;-93
2023/07/24 04:47:44;;;;;;;5.55;4.20;;;16.90;99.90;;;;;;6249581;22;20016;-94
2023/07/24 04:50:10;;;;;;;5.53;4.80;;;16.90;99.90;;;;;;6274835;22;20016;-93
2023/07/24 04:52:36;;;;;;;5.38;4.10;;;16.90;99.90;;;;;;6224213;22;20019;-93
2023/07/24 04:55:02;;;;;;;6.25;4.30;;;16.90;99.90;;;;;;6223770;22;20016;-92
2023/07/24 04:57:30;;;;;;;5.22;4.55;;;16.90;99.90;;;;;;6249215;22;20015;-94
2023/07/24 05:00:06;;;;;;;6.13;4.65;;;17.10;99.90;;;;;;6275007;22;20035;-92
2023/07/24 05:02:32;;;;;;;4.82;4.32;;;17.10;99.90;;;;;;6274138;22;20008;-93
2023/07/24 05:04:58;;;;;;;5.10;4.60;;;16.90;99.90;;;;;;6275059;22;20015;-93
2023/07/24 05:07:28;;;;;;;5.05;4.55;;;17.00;99.90;;;;;;6274165;22;20011;-92
2023/07/24 05:09:54;;;;;;;6.38;4.45;;;17.00;99.90;;;;;;6250446;22;20023;-92
2023/07/24 05:12:25;;;;;;;5.57;4.10;;;17.00;99.90;;;;;;6274835;22;20011;-94
2023/07/24 05:14:51;;;;;;;6.45;4.80;;;17.00;99.90;;;;;;6274734;22;20016;-92
2023/07/24 05:17:18;;;;;;;5.53;4.47;;;17.00;99.90;;;;;;6274793;22;20379;-93
2023/07/24 05:19:49;;;;;;;5.30;4.40;;;17.00;99.90;;;;;;6249593;22;20015;-92
2023/07/24 05:22:15;;;;;;;5.35;4.72;;;17.00;99.90;;;;;;6273946;22;20014;-94
2023/07/24 05:24:46;;;;;;;5.55;4.50;;;17.10;99.90;;;;;;6249300;22;20047;-93
2023/07/24 05:27:58;;;;;;;5.00;4.45;;;17.10;99.90;;;;;;6273573;22;20107;-93
2023/07/24 05:33:29;;;;;;;5.22;4.07;;;17.10;99.90;;;;;;6253109;22;20016;-95
2023/07/24 05:36:00;;;;;;;6.90;4.65;;;17.20;99.90;;;;;;6273896;22;20809;-96
2023/07/24 05:38:58;;;;;;;6.05;4.75;;;17.20;99.90;;;;;;6270572;22;20081;-94
2023/07/24 05:41:36;;;;;;;6.10;4.70;;;17.20;99.90;;;;;;6254806;22;20012;-94
2023/07/24 05:44:12;;;;;;;6.10;4.57;;;17.30;99.90;;;;;;6227607;22;20013;-95
2023/07/24 05:51:20;;;;;;;6.50;4.30;;;17.50;99.90;;;;;;6172809;23;20024;-95
2023/07/24 05:54:12;;;;;;;6.13;4.57;;;17.50;99.90;;;;;;6137544;22;20473;-94
2023/07/24 05:56:38;;;;;;;6.10;4.60;;;17.50;99.90;;;;;;6236415;22;20022;-93
2023/07/24 05:59:11;;;;;;;5.97;4.95;;;17.50;99.90;;;;;;6253821;22;20011;-94
2023/07/24 06:05:39;;;;;;;4.88;4.28;;;17.40;99.90;;;;;;6122501;23;20069;-94
2023/07/24 06:08:08;;;;;;;5.15;4.50;;;17.60;99.90;;;;;;6123515;23;20464;-94
2023/07/24 06:10:37;;;;;;;6.45;4.60;;;17.50;99.90;;;;;;6263577;22;20015;-94
2023/07/24 06:13:06;;;;;;;5.82;4.68;;;17.50;99.90;;;;;;6252246;22;20012;-94
2023/07/24 06:15:34;;;;;;;5.38;4.60;;;17.50;99.90;;;;;;6275691;22;20022;-95
2023/07/24 06:18:11;;;;;;;;;;;;;;;;;;;;;
2023/07/24 06:20:53;;;;;;;5.25;4.72;;;17.40;99.90;;;;;;6276017;22;20012;-94
2023/07/24 06:23:19;;;;;;;5.20;4.22;;;17.30;99.90;;;;;;6249441;22;20011;-94
2023/07/24 06:25:49;;;;;;;5.18;4.63;;;17.50;99.90;;;;;;6249791;22;20031;-94
2023/07/24 06:28:22;;;;;;;5.95;4.40;;;17.10;99.90;;;;;;6274965;22;20015;-95
2023/07/24 06:31:05;;;;;;;6.38;4.68;;;17.50;99.90;;;;;;6224704;22;20038;-94
2023/07/24 06:33:34;;;;;;;5.68;3.97;;;17.60;99.90;;;;;;6246587;22;20012;-94
2023/07/24 06:36:10;;;;;;;5.82;4.53;;;17.60;99.90;;;;;;6225295;22;20055;-94
2023/07/24 06:38:50;;;;;;;5.65;4.38;;;17.10;99.90;;;;;;6275265;22;20007;-93
2023/07/24 06:41:17;;;;;;;5.95;4.22;;;;;;;;;;6252545;22;20327;-94
2023/07/24 06:43:53;;;;;;;5.00;4.30;;;18.00;99.90;;;;;;6276580;22;20674;-95
2023/07/24 06:46:19;;;;;;;6.05;3.88;;;17.80;99.90;;;;;;6252029;22;20496;-94
2023/07/24 06:49:11;;;;;;;5.10;4.50;;;17.90;99.90;;;;;;6224906;22;20022;-94
2023/07/24 06:51:43;;;;;;;5.68;3.90;;;17.90;99.90;;;;;;6275723;22;20034;-94
2023/07/24 06:54:09;;;;;;;6.60;4.45;;;18.00;99.90;;;;;;6276454;22;20042;-93
2023/07/24 06:56:35;;;;;;;5.78;4.13;;;17.90;99.90;;;;;;6250648;22;20513;-93
2023/07/24 06:59:04;;;;;;;6.00;4.20;;;18.00;99.90;;;;;;6225095;22;20012;-95
2023/07/24 07:01:45;;;;;;;6.50;4.70;;;18.00;99.90;;;;;;6276296;22;20018;-94
2023/07/24 07:04:14;;;;;;;6.00;4.68;;;18.00;99.90;;;;;;6198561;22;20320;-94
2023/07/24 07:06:40;;;;;;;5.18;3.80;;;18.10;99.90;;;;;;6250177;22;20012;-94
2023/07/24 07:09:11;;;;;;;5.72;3.92;;;18.10;99.90;;;;;;6275697;22;20221;-95
2023/07/24 07:12:03;;;;;;;5.00;4.13;;;18.50;99.90;;;;;;6252275;22;20007;-95
2023/07/24 08:07:25;;;;;;;;;;;;;;;;;;;;;
2023/07/24 08:22:05;;;;;;;4.93;3.97;;;19.10;99.90;;;;;;6182733;23;20039;-96
2023/07/24 08:24:35;;;;;;;6.43;4.10;;;19.20;99.90;;;;;;6133781;23;20075;-95
2023/07/24 08:27:01;;;;;;;5.80;3.83;;;19.20;99.90;;;;;;6157055;22;20072;-95
2023/07/24 08:29:30;;;;;;;6.18;4.28;;;19.10;99.90;;;;;;6255967;22;20339;-94
2023/07/24 08:31:56;;;;;;;5.18;3.33;;;19.20;99.90;;;;;;6280890;22;20015;-96
2023/07/24 08:34:22;;;;;;;5.50;3.83;;;19.20;99.90;;;;;;6280773;22;20015;-90
2023/07/24 08:36:47;;;;;;;5.32;3.75;;;19.20;99.90;;;;;;6254776;22;20046;-90
2023/07/24 08:39:13;;;;;;;4.88;3.67;;;19.30;99.90;;;;;;6229982;22;20022;-90
2023/07/24 08:41:39;;;;;;;6.32;3.67;;;19.30;99.90;;;;;;6205205;22;20043;-91
2023/07/24 08:44:07;;;;;;;6.93;3.88;;;19.40;99.90;;;;;;6254300;22;20072;-91
2023/07/24 08:46:37;;;;;;;5.82;3.67;;;19.40;99.90;;;;;;6228891;22;20720;-90
2023/07/24 08:49:03;;;;;;;6.25;4.10;;;19.40;99.90;;;;;;6229349;22;20018;-91
2023/07/24 08:51:30;;;;;;;7.05;3.60;;;19.40;99.90;;;;;;6254516;22;20011;-89
2023/07/24 08:54:32;;;;;;;6.47;3.72;;;19.40;99.90;;;;;;6273423;22;20426;-91
2023/07/24 08:57:22;;;;;;;6.80;3.20;;;19.50;99.90;;;;;;6281982;22;20015;-96
2023/07/24 09:00:21;;;;;;;4.93;3.03;;;19.30;99.90;;;;;;6271698;22;20045;-96
2023/07/24 09:03:28;;;;;;;6.97;3.75;;;19.30;99.90;;;;;;6289400;22;20098;-96
2023/07/24 09:06:22;;;;;;;6.60;3.92;;;19.20;99.90;;;;;;6294983;22;20015;-95
2023/07/24 09:10:16;;;;;;;7.15;4.13;;;19.30;99.90;;;;;;6244015;22;20024;-96
2023/07/24 09:13:08;;;;;;;7.65;3.60;;;19.10;99.90;;;;;;6212096;23;20008;-95
2023/07/24 09:20:33;;;;;;;6.22;3.85;;;19.40;99.90;;;;;;6063055;23;20022;-96
2023/07/24 09:23:46;;;;;;;;;;;;;;;;;;;;;
2023/07/24 09:27:26;;;;;;;;;;;;;;;;;;;;;
2023/07/24 09:30:49;;;;;;;7.07;3.63;;;20.60;99.90;;;;;;6055414;23;20074;-96
2023/07/24 09:33:53;;;;;;;5.95;3.65;;;;;;;;;;5912847;24;20021;-96
2023/07/24 09:36:54;;;;;;;5.57;3.88;;;21.50;99.90;;;;;;5893455;24;20016;-96
2023/07/24 09:40:46;;;;;;;;;;;;;;;;;;;;;
2023/07/24 09:44:29;;;;;;;5.85;3.97;;;21.30;99.90;;;;;;5876142;24;20040;-96
2023/07/24 09:52:29;;;;;;;5.85;4.22;;;21.70;99.90;;;;;;6243163;22;20027;-96
2023/07/24 09:55:11;;;;;;;6.90;4.22;;;22.00;99.90;;;;;;6217161;23;20020;-95
2023/07/24 09:57:37;;;;;;;5.70;3.90;;;22.10;99.90;;;;;;6216850;23;20012;-96
2023/07/24 10:03:31;;;;;;;5.20;3.13;;;22.70;99.90;;;;;;6218072;23;20031;-96
2023/07/24 10:05:57;;;;;;;5.93;2.63;;;22.70;99.90;;;;;;6216866;23;20122;-96
2023/07/24 10:08:24;;;;;;;6.82;2.97;;;22.70;99.90;;;;;;6192280;23;20094;-96
2023/07/24 10:10:52;;;;;;;6.70;2.90;;;22.70;99.90;;;;;;6218825;23;20440;-94
2023/07/24 10:13:18;;;;;;;4.65;2.80;;;22.70;99.90;;;;;;6168687;23;20071;-95
2023/07/24 10:15:47;;;;;;;6.72;2.88;;;22.70;99.90;;;;;;6218331;23;20016;-94
2023/07/24 10:18:14;;;;;;;5.60;2.78;;;22.70;99.90;;;;;;6218631;23;20019;-94
2023/07/24 10:20:41;;;;;;;4.13;3.45;;;22.50;99.90;;;;;;6169305;23;20044;-94
2023/07/24 10:23:08;;;;;;;;;;;22.30;99.90;;;;;;6168937;23;20012;-95
2023/07/24 10:25:35;;;;;;;5.15;3.50;;;22.00;99.90;;;;;;6218679;23;19911;-95
2023/07/24 10:28:10;;;;;;;4.22;3.65;;;21.90;99.90;;;;;;6167869;23;20064;-95
2023/07/24 10:30:38;;;;;;;4.90;4.10;;;21.90;99.90;;;;;;6170247;23;20012;-95
2023/07/24 10:33:11;;;;;;;5.75;4.47;;;21.80;99.90;;;;;;6193322;23;20023;-94
2023/07/24 10:35:43;;;;;;;6.65;5.00;;;21.80;99.90;;;;;;6193766;23;20016;-95
2023/07/24 10:38:09;;;;;;;6.22;4.93;;;21.80;99.90;;;;;;6169258;23;20008;-95
2023/07/24 10:40:39;;;;;;;7.43;4.57;;;21.70;99.90;;;;;;6193058;23;20015;-94
2023/07/24 10:43:06;;;;;;;6.45;3.95;;;21.70;99.90;;;;;;6192708;23;20013;-95
2023/07/24 10:45:53;;;;;;;6.97;4.57;;;21.60;99.90;;;;;;6193551;23;20027;-95
2023/07/24 10:48:20;;;;;;;6.13;5.28;;;21.60;99.90;;;;;;6193198;23;20051;-95
2023/07/24 10:50:48;;;;;;;6.13;4.35;;;21.60;99.90;;;;;;6198490;22;20395;-95
2023/07/24 10:53:17;;;;;;;5.13;4.63;;;21.60;99.90;;;;;;6222735;22;20030;-94
2023/07/24 10:55:43;;;;;;;5.57;3.92;;;21.60;99.90;;;;;;6250581;22;20012;-95
2023/07/24 10:58:13;;;;;;;5.15;3.20;;;21.60;99.90;;;;;;6275369;22;20087;-94
2023/07/24 11:00:40;;;;;;;2.47;1.80;;;21.50;99.90;;;;;;6251093;22;20012;-95
2023/07/24 11:03:11;;;;;;;2.50;1.90;;;21.40;99.90;;;;;;6224898;22;20012;-95
2023/07/24 11:05:43;;;;;;;2.88;1.75;;;21.20;99.90;;;;;;6276746;22;20130;-94
2023/07/24 11:08:20;;;;;;;3.08;2.00;;;21.00;99.90;;;;;;6199550;22;20020;-94
2023/07/24 11:10:53;;;;;;;3.15;2.20;;;20.80;99.90;;;;;;6250358;22;20015;-94
2023/07/24 11:13:22;;;;;;;2.92;2.00;;;20.60;99.90;;;;;;6224040;22;20011;-94
2023/07/24 11:15:49;;;;;;;3.35;2.35;;;20.50;99.90;;;;;;6250050;22;20016;-94
2023/07/24 11:18:15;;;;;;;4.45;2.55;;;20.40;99.90;;;;;;6224744;22;20012;-94
2023/07/24 11:20:49;;;;;;;2.87;2.47;;;20.40;99.90;;;;;;6225240;22;20016;-94
2023/07/24 11:23:15;;;;;;;3.90;2.38;;;20.20;99.90;;;;;;6225645;22;20419;-95
2023/07/24 11:25:41;;;;;;;3.78;2.47;;;20.20;99.90;;;;;;6225072;22;20047;-93
2023/07/24 11:28:08;;;;;;;4.10;2.58;;;20.40;99.90;;;;;;6249555;22;20073;-93
2023/07/24 11:30:34;;;;;;;;;;;20.50;99.90;;;;;;6225914;22;20023;-95
2023/07/24 11:33:02;;;;;;;3.78;2.40;;;20.50;99.90;;;;;;6199410;22;20262;-94
2023/07/24 11:35:28;;;;;;;3.15;2.35;;;20.50;99.90;;;;;;6224873;22;20047;-94
2023/07/24 11:37:54;;;;;;;4.13;2.47;;;20.50;99.90;;;;;;6224439;22;20018;-94
2023/07/24 11:40:20;;;;;;;3.25;2.42;;;20.60;99.90;;;;;;6224766;22;20008;-94
2023/07/24 11:42:48;;;;;;;4.23;2.70;;;20.60;99.90;;;;;;6224158;22;20011;-94
2023/07/24 11:45:14;;;;;;;4.65;2.75;;;20.60;99.90;;;;;;6275845;22;20603;-94
2023/07/24 11:47:48;;;;;;;5.43;3.53;;;20.60;99.90;;;;;;6199756;22;20052;-95
2023/07/24 11:50:16;;;;;;;4.70;3.40;;;20.60;99.90;;;;;;6250509;22;20098;-93
2023/07/24 11:52:51;;;;;;;4.25;3.00;;;20.60;99.90;;;;;;6223867;22;20632;-94
2023/07/24 11:55:19;;;;;;;4.65;2.90;;;20.60;99.90;;;;;;6223762;22;20022;-94
2023/07/24 11:58:01;;;;;;;5.45;3.30;;;20.60;99.90;;;;;;6274602;22;20030;-94
2023/07/24 12:00:28;;;;;;;6.82;3.38;;;20.70;99.90;;;;;;6249438;22;20046;-93
2023/07/24 12:02:59;;;;;;;4.22;2.88;;;20.90;99.90;;;;;;6223428;22;20014;-94
2023/07/24 12:05:25;;;;;;;5.05;3.40;;;21.00;99.90;;;;;;6224766;22;20019;-93
2023/07/24 12:07:54;;;;;;;4.25;3.00;;;21.10;99.90;;;;;;6249111;22;20055;-92
2023/07/24 12:10:27;;;;;;;4.40;2.60;;;21.20;99.90;;;;;;6275710;22;20335;-91
2023/07/24 12:12:57;;;;;;;3.67;3.20;;;21.50;99.90;;;;;;6223839;22;20050;-92
2023/07/24 12:15:23;;;;;;;6.00;3.05;;;21.60;99.90;;;;;;6225330;22;20066;-92
2023/07/24 12:17:52;;;;;;;5.30;2.60;;;21.70;99.90;;;;;;6224147;22;20008;-91
2023/07/24 12:20:18;;;;;;;3.22;2.40;;;21.90;99.90;;;;;;6274608;22;20086;-92
2023/07/24 12:22:44;;;;;;;3.05;2.42;;;22.00;99.90;;;;;;6173446;22;20043;-91
2023/07/24 12:25:10;;;;;;;3.65;2.30;;;22.10;99.90;;;;;;6249725;22;20098;-92
2023/07/24 12:27:37;;;;;;;4.07;2.13;;;22.10;99.90;;;;;;6248637;22;20458;-95
2023/07/24 12:30:03;;;;;;;3.45;2.50;;;21.90;99.90;;;;;;6250002;22;20053;-92
2023/07/24 12:32:29;;;;;;;3.80;2.55;;;21.60;99.90;;;;;;6223585;22;20158;-91
2023/07/24 12:34:54;;;;;;;4.47;3.20;;;21.10;99.90;;;;;;6224220;22;20435;-92
2023/07/24 12:37:20;;;;;;;8.82;2.90;;;20.80;99.90;;;;;;6223156;22;20070;-93
2023/07/24 12:39:47;;;;;;;3.60;2.40;;;;;;;;;;6248431;22;20007;-91
2023/07/24 12:42:13;;;;;;;5.78;3.50;;;19.80;99.90;;;;;;6222804;22;20008;-92
2023/07/24 12:44:39;;;;;;;6.68;3.40;;;19.40;99.90;;;;;;6223225;22;20107;-92
2023/07/24 12:47:17;;;;;;;6.93;3.60;;;19.20;99.90;;;;;;6223141;22;20094;-94
2023/07/24 12:49:49;;;;;;;4.60;3.40;;;19.00;99.90;;;;;;6225588;22;20053;-93
2023/07/24 13:22:02;;;;;;;;;;;;;;;;;;;;;
2023/07/24 13:25:06;;;;;;;8.18;3.97;;;19.10;99.90;;;;;;6152691;23;20076;-93
2023/07/24 13:27:52;;;;;;;5.45;4.25;;;19.30;99.90;;;;;;6134466;23;20056;-92
2023/07/24 13:30:36;;;;;;;5.10;4.03;;;19.30;99.90;;;;;;6123678;23;20025;-93
2023/07/24 13:33:38;;;;;;;7.57;3.78;;;19.40;99.90;;;;;;6190789;22;20068;-94
2023/07/24 13:36:04;;;;;;;7.20;3.55;;;19.50;99.90;;;;;;6156893;23;20024;-92
2023/07/24 13:38:30;;;;;;;3.83;3.22;;;19.60;99.90;;;;;;6185099;22;20428;-92
2023/07/24 13:40:56;;;;;;;5.18;3.38;;;19.50;99.90;;;;;;6248698;22;20012;-93
2023/07/24 13:43:29;;;;;;;3.85;3.10;;;19.50;99.90;;;;;;6249794;22;20016;-92
2023/07/24 13:45:55;;;;;;;2.70;2.35;;;19.70;99.90;;;;;;6249338;22;20016;-94
2023/07/24 13:48:22;;;;;;;1.88;1.50;;;19.80;99.90;;;;;;6223820;22;20027;-94
2023/07/24 13:50:50;;;;;;;2.67;1.13;;;19.80;99.90;;;;;;6222283;22;20015;-96
2023/07/24 13:53:29;;;;;;;3.60;1.83;;;19.70;99.90;;;;;;6253366;22;20027;-96
2023/07/24 13:55:57;;;;;;;2.60;1.25;;;19.80;99.90;;;;;;6249745;22;20367;-95
2023/07/24 13:58:25;;;;;;;5.00;1.20;;;19.70;99.90;;;;;;6250985;22;20011;-95
2023/07/24 14:00:59;;;;;;;3.35;1.00;;;19.70;99.90;;;;;;6225007;22;20031;-96
2023/07/24 14:03:45;;;;;;;2.42;1.00;;;19.30;99.90;;;;;;6208997;22;20012;-95
2023/07/24 14:17:54;;;;;;;4.32;1.25;;;18.60;99.90;;;;;;6159580;23;20032;-95
2023/07/24 14:20:40;;;;;;;5.45;1.75;;;18.20;99.90;;;;;;6175109;22;20031;-96
2023/07/24 14:23:13;;;;;;;4.07;1.60;;;18.30;99.90;;;;;;6247818;22;20012;-94
2023/07/24 14:25:44;;;;;;;6.28;1.80;;;18.10;99.90;;;;;;6250411;22;20388;-96
2023/07/24 14:28:16;;;;;;;4.65;1.67;;;17.90;99.90;;;;;;6249968;22;20047;-95
2023/07/24 14:30:45;;;;;;;5.85;1.70;;;18.00;99.90;;;;;;6249970;22;20043;-93
2023/07/24 14:33:10;;;;;;;2.72;1.23;;;17.90;99.90;;;;;;6251404;22;20011;-94
2023/07/24 14:35:44;;;;;;;4.30;1.52;;;17.80;99.90;;;;;;6251116;22;20106;-95
2023/07/24 14:38:10;;;;;;;5.97;1.95;;;17.90;99.90;;;;;;6175796;22;20504;-92
2023/07/24 14:40:36;;;;;;;5.25;1.77;;;18.00;99.90;;;;;;6224213;22;20043;-94
2023/07/24 14:43:02;;;;;;;3.60;1.50;;;18.00;99.90;;;;;;6249879;22;20015;-91
2023/07/24 14:45:28;;;;;;;2.85;1.55;;;18.10;99.90;;;;;;6250871;22;20018;-94
2023/07/24 14:47:57;;;;;;;3.97;1.42;;;17.80;99.90;;;;;;6250783;22;20048;-93
2023/07/24 14:50:23;;;;;;;4.22;1.27;;;17.90;99.90;;;;;;6225174;22;20015;-93
2023/07/24 14:52:54;;;;;;;5.22;1.30;;;17.80;99.90;;;;;;6249999;22;20058;-93
2023/07/24 14:55:20;;;;;;;4.70;1.48;;;18.20;99.90;;;;;;6224838;22;20020;-93
2023/07/24 14:57:46;;;;;;;3.30;1.15;;;17.60;99.90;;;;;;6224595;22;20509;-91
2023/07/24 15:00:12;;;;;;;4.68;1.23;;;17.60;99.90;;;;;;6225118;22;20471;-91
2023/07/24 15:02:38;;;;;;;2.90;1.00;;;17.60;99.90;;;;;;6224620;22;20012;-93
2023/07/24 15:05:13;;;;;;;5.30;1.70;;;17.60;99.90;;;;;;6225335;22;20343;-94
2023/07/24 15:07:41;;;;;;;2.92;0.82;;;17.30;99.90;;;;;;6226146;22;20016;-93
2023/07/24 15:10:07;;;;;;;3.33;0.80;;;17.50;99.90;;;;;;6248765;22;20077;-89
2023/07/24 15:12:36;;;;;;;2.97;1.05;;;17.50;99.90;;;;;;6248959;22;20011;-91
2023/07/24 15:15:02;;;;;;;2.75;0.70;;;17.40;99.90;;;;;;6224862;22;20463;-91
2023/07/24 15:17:28;;;;;;;4.80;0.70;;;;;;;;;;6199658;22;20085;-92
2023/07/24 15:19:54;;;;;;;1.20;0.52;;;17.10;99.90;;;;;;6223979;22;20008;-93
2023/07/24 15:22:20;;;;;;;1.40;0.77;;;17.80;99.90;;;;;;6249613;22;20011;-93
2023/07/24 15:24:46;;;;;;;4.63;0.90;;;16.90;99.90;;;;;;6224036;22;20016;-91
2023/07/24 15:27:11;;;;;;;2.10;0.90;;;16.90;99.90;;;;;;6249323;22;20793;-91
2023/07/24 15:29:37;;;;;;;2.22;0.70;;;16.90;99.90;;;;;;6249499;22;20347;-94